sensor_id;sensor_type;location;lat;lon;timestamp;pressure;altitude;pressure_sealevel;temperature;humidity
69717;BME280;67420;46.144;19.666;2023-11-18T00:09:50;99972.91;;;20.90;57.84
69717;BME280;67420;46.144;19.666;2023-11-18T00:19:51;99984.03;;;20.85;57.94
69717;BME280;67420;46.144;19.666;2023-11-18T00:29:55;100001.66;;;20.88;57.98
69717;BME280;67420;46.144;19.666;2023-11-18T00:39:57;100014.91;;;20.89;57.96
69717;BME280;67420;46.144;19.666;2023-11-18T00:49:59;100025.91;;;20.86;57.76
69717;BME280;67420;46.144;19.666;2023-11-18T01:00:04;100024.19;;;20.85;57.65
69717;BME280;67420;46.144;19.666;2023-11-18T01:10:06;100025.91;;;20.86;57.53
69717;BME280;67420;46.144;19.666;2023-11-18T01:20:09;100033.22;;;20.84;57.95
69717;BME280;67420;46.144;19.666;2023-11-18T01:30:12;100049.75;;;20.89;57.36
69717;BME280;67420;46.144;19.666;2023-11-18T01:40:14;100057.91;;;20.88;57.53
69717;BME280;67420;46.144;19.666;2023-11-18T01:50:17;100067.63;;;20.89;57.08
69717;BME280;67420;46.144;19.666;2023-11-18T02:00:19;100062.56;;;20.86;57.53
69717;BME280;67420;46.144;19.666;2023-11-18T02:10:21;100051.69;;;20.87;57.38
69717;BME280;67420;46.144;19.666;2023-11-18T02:20:23;100062.41;;;20.87;57.41
69717;BME280;67420;46.144;19.666;2023-11-18T02:30:26;100070.31;;;20.89;57.64
69717;BME280;67420;46.144;19.666;2023-11-18T02:40:36;100079.22;;;20.89;57.08
69717;BME280;67420;46.144;19.666;2023-11-18T02:50:39;100095.28;;;20.89;56.95
69717;BME280;67420;46.144;19.666;2023-11-18T03:00:43;100098.69;;;20.91;57.17
69717;BME280;67420;46.144;19.666;2023-11-18T03:10:46;100099.53;;;20.92;57.42
69717;BME280;67420;46.144;19.666;2023-11-18T03:20:48;100115.72;;;20.90;56.71
69717;BME280;67420;46.144;19.666;2023-11-18T03:30:50;100133.50;;;20.91;56.80
69717;BME280;67420;46.144;19.666;2023-11-18T03:40:53;100131.81;;;20.90;56.71
69717;BME280;67420;46.144;19.666;2023-11-18T03:50:54;100139.84;;;20.90;57.00
69717;BME280;67420;46.144;19.666;2023-11-18T04:00:56;100141.81;;;20.88;56.71
69717;BME280;67420;46.144;19.666;2023-11-18T04:10:59;100157.63;;;20.91;57.09
69717;BME280;67420;46.144;19.666;2023-11-18T04:21:00;100151.28;;;20.92;56.95
69717;BME280;67420;46.144;19.666;2023-11-18T04:31:02;100167.22;;;20.94;57.00
69717;BME280;67420;46.144;19.666;2023-11-18T04:41:04;100176.50;;;20.90;57.18
69717;BME280;67420;46.144;19.666;2023-11-18T04:51:08;100174.66;;;20.90;57.24
69717;BME280;67420;46.144;19.666;2023-11-18T05:01:10;100193.41;;;20.90;57.20
69717;BME280;67420;46.144;19.666;2023-11-18T05:11:12;100202.19;;;20.92;57.10
69717;BME280;67420;46.144;19.666;2023-11-18T05:21:14;100209.97;;;20.95;57.09
69717;BME280;67420;46.144;19.666;2023-11-18T05:31:16;100213.75;;;20.93;57.18
69717;BME280;67420;46.144;19.666;2023-11-18T05:41:18;100220.69;;;20.95;56.86
69717;BME280;67420;46.144;19.666;2023-11-18T05:51:28;100236.50;;;20.98;56.87
69717;BME280;67420;46.144;19.666;2023-11-18T06:01:31;100244.41;;;21.00;57.02
69717;BME280;67420;46.144;19.666;2023-11-18T06:11:33;100242.56;;;21.00;56.85
69717;BME280;67420;46.144;19.666;2023-11-18T06:21:36;100264.06;;;21.10;56.59
69717;BME280;67420;46.144;19.666;2023-11-18T06:31:39;100277.44;;;21.10;56.85
69717;BME280;67420;46.144;19.666;2023-11-18T06:41:41;100282.44;;;21.15;56.57
69717;BME280;67420;46.144;19.666;2023-11-18T06:51:50;100296.41;;;21.18;56.85
69717;BME280;67420;46.144;19.666;2023-11-18T07:01:52;100299.22;;;21.17;56.52
69717;BME280;67420;46.144;19.666;2023-11-18T07:11:54;100306.78;;;21.23;57.06
69717;BME280;67420;46.144;19.666;2023-11-18T07:21:57;100327.00;;;21.27;56.43
69717;BME280;67420;46.144;19.666;2023-11-18T07:31:59;100326.56;;;21.31;56.30
69717;BME280;67420;46.144;19.666;2023-11-18T07:42:03;100334.22;;;21.36;56.56
69717;BME280;67420;46.144;19.666;2023-11-18T07:52:07;100331.41;;;21.38;56.11
69717;BME280;67420;46.144;19.666;2023-11-18T08:02:08;100357.84;;;21.42;56.32
69717;BME280;67420;46.144;19.666;2023-11-18T08:12:12;100340.66;;;21.45;56.06
69717;BME280;67420;46.144;19.666;2023-11-18T08:22:14;100348.56;;;21.46;55.50
69717;BME280;67420;46.144;19.666;2023-11-18T08:32:17;100361.13;;;21.46;55.56
69717;BME280;67420;46.144;19.666;2023-11-18T08:42:19;100366.47;;;21.46;55.01
69717;BME280;67420;46.144;19.666;2023-11-18T08:52:21;100358.44;;;21.46;55.21
69717;BME280;67420;46.144;19.666;2023-11-18T09:02:23;100377.09;;;21.47;55.08
69717;BME280;67420;46.144;19.666;2023-11-18T09:12:25;100380.47;;;21.49;55.05
69717;BME280;67420;46.144;19.666;2023-11-18T09:22:28;100385.72;;;21.51;54.91
69717;BME280;67420;46.144;19.666;2023-11-18T09:32:30;100379.38;;;21.52;54.60
69717;BME280;67420;46.144;19.666;2023-11-18T09:42:40;100373.75;;;21.55;54.22
69717;BME280;67420;46.144;19.666;2023-11-18T09:52:48;100360.34;;;21.55;54.38
69717;BME280;67420;46.144;19.666;2023-11-18T10:02:54;100356.94;;;21.53;53.66
69717;BME280;67420;46.144;19.666;2023-11-18T10:12:58;100374.00;;;21.52;53.73
69717;BME280;67420;46.144;19.666;2023-11-18T10:23:07;100360.91;;;21.58;53.52
69717;BME280;67420;46.144;19.666;2023-11-18T10:33:14;100371.34;;;21.52;53.31
69717;BME280;67420;46.144;19.666;2023-11-18T10:43:18;100366.22;;;21.49;53.43
69717;BME280;67420;46.144;19.666;2023-11-18T10:53:19;100369.03;;;21.47;53.05
69717;BME280;67420;46.144;19.666;2023-11-18T11:03:23;100376.22;;;21.47;53.07
69717;BME280;67420;46.144;19.666;2023-11-18T11:13:26;100385.63;;;21.41;52.88
69717;BME280;67420;46.144;19.666;2023-11-18T11:33:59;100397.69;;;21.47;53.25
69717;BME280;67420;46.144;19.666;2023-11-18T11:44:08;100412.53;;;21.51;53.32
69717;BME280;67420;46.144;19.666;2023-11-18T11:54:13;100430.00;;;21.45;53.62
69717;BME280;67420;46.144;19.666;2023-11-18T12:04:23;100454.59;;;21.50;53.74
69717;BME280;67420;46.144;19.666;2023-11-18T12:14:30;100440.59;;;21.47;53.54
69717;BME280;67420;46.144;19.666;2023-11-18T12:24:39;100462.94;;;21.57;54.30
69717;BME280;67420;46.144;19.666;2023-11-18T12:34:52;100466.91;;;21.53;54.14
69717;BME280;67420;46.144;19.666;2023-11-18T12:55:19;100430.16;;;21.32;53.75
69717;BME280;67420;46.144;19.666;2023-11-18T13:05:21;100482.16;;;21.41;53.50
69717;BME280;67420;46.144;19.666;2023-11-18T13:15:24;100482.66;;;21.35;53.71
69717;BME280;67420;46.144;19.666;2023-11-18T13:25:26;100493.88;;;21.40;53.96
69717;BME280;67420;46.144;19.666;2023-11-18T13:35:29;100497.53;;;21.39;54.11
69717;BME280;67420;46.144;19.666;2023-11-18T13:45:31;100501.91;;;21.40;54.45
69717;BME280;67420;46.144;19.666;2023-11-18T13:55:39;100500.47;;;21.36;54.53
69717;BME280;67420;46.144;19.666;2023-11-18T14:05:42;100513.88;;;21.36;54.12
69717;BME280;67420;46.144;19.666;2023-11-18T14:15:49;100549.31;;;21.40;54.73
69717;BME280;67420;46.144;19.666;2023-11-18T14:25:56;100550.19;;;21.40;54.48
69717;BME280;67420;46.144;19.666;2023-11-18T14:35:59;100565.53;;;21.38;54.83
69717;BME280;67420;46.144;19.666;2023-11-18T14:46:04;100580.91;;;21.36;54.70
69717;BME280;67420;46.144;19.666;2023-11-18T14:56:06;100587.13;;;21.37;54.50
69717;BME280;67420;46.144;19.666;2023-11-18T15:06:08;100582.47;;;21.39;54.30
69717;BME280;67420;46.144;19.666;2023-11-18T15:16:13;100591.63;;;21.36;54.58
69717;BME280;67420;46.144;19.666;2023-11-18T15:26:15;100577.28;;;21.26;54.44
69717;BME280;67420;46.144;19.666;2023-11-18T15:36:17;100589.19;;;21.33;54.41
69717;BME280;67420;46.144;19.666;2023-11-18T15:46:19;100611.38;;;21.35;54.87
69717;BME280;67420;46.144;19.666;2023-11-18T15:56:21;100619.28;;;21.37;54.63
69717;BME280;67420;46.144;19.666;2023-11-18T16:06:24;100632.81;;;21.35;55.02
69717;BME280;67420;46.144;19.666;2023-11-18T16:16:25;100639.16;;;21.34;54.79
69717;BME280;67420;46.144;19.666;2023-11-18T16:26:29;100649.03;;;21.33;54.42
69717;BME280;67420;46.144;19.666;2023-11-18T16:36:31;100652.81;;;21.31;54.67
69717;BME280;67420;46.144;19.666;2023-11-18T16:46:37;100674.53;;;21.28;54.44
69717;BME280;67420;46.144;19.666;2023-11-18T16:56:39;100673.44;;;21.30;54.97
69717;BME280;67420;46.144;19.666;2023-11-18T17:06:41;100674.66;;;21.26;54.57
69717;BME280;67420;46.144;19.666;2023-11-18T17:16:45;100679.03;;;21.27;54.61
69717;BME280;67420;46.144;19.666;2023-11-18T17:26:48;100687.19;;;21.26;54.67
69717;BME280;67420;46.144;19.666;2023-11-18T17:36:52;100698.03;;;21.24;55.02
69717;BME280;67420;46.144;19.666;2023-11-18T17:46:54;100706.19;;;21.23;54.66
69717;BME280;67420;46.144;19.666;2023-11-18T17:56:57;100707.06;;;21.23;55.08
69717;BME280;67420;46.144;19.666;2023-11-18T18:07:01;100726.56;;;21.25;55.30
69717;BME280;67420;46.144;19.666;2023-11-18T18:17:03;100738.38;;;21.23;56.00
69717;BME280;67420;46.144;19.666;2023-11-18T18:27:06;100735.56;;;21.24;55.94
69717;BME280;67420;46.144;19.666;2023-11-18T18:37:08;100726.44;;;21.27;55.45
69717;BME280;67420;46.144;19.666;2023-11-18T18:47:10;100735.44;;;21.26;55.54
69717;BME280;67420;46.144;19.666;2023-11-18T18:57:12;100749.59;;;21.28;54.93
69717;BME280;67420;46.144;19.666;2023-11-18T19:07:16;100751.41;;;21.27;55.12
69717;BME280;67420;46.144;19.666;2023-11-18T19:17:20;100734.38;;;21.28;55.39
69717;BME280;67420;46.144;19.666;2023-11-18T19:27:23;100727.06;;;21.30;55.01
69717;BME280;67420;46.144;19.666;2023-11-18T19:37:26;100723.53;;;21.30;55.25
69717;BME280;67420;46.144;19.666;2023-11-18T19:47:28;100740.69;;;21.27;55.08
69717;BME280;67420;46.144;19.666;2023-11-18T19:57:31;100737.78;;;21.30;55.10
69717;BME280;67420;46.144;19.666;2023-11-18T20:07:37;100770.78;;;21.31;55.25
69717;BME280;67420;46.144;19.666;2023-11-18T20:17:40;100763.59;;;21.31;55.07
69717;BME280;67420;46.144;19.666;2023-11-18T20:27:47;100792.38;;;21.29;57.23
69717;BME280;67420;46.144;19.666;2023-11-18T20:37:50;100793.47;;;21.27;57.30
69717;BME280;67420;46.144;19.666;2023-11-18T20:47:52;100779.94;;;21.28;56.90
69717;BME280;67420;46.144;19.666;2023-11-18T20:57:54;100781.78;;;21.28;57.04
69717;BME280;67420;46.144;19.666;2023-11-18T21:07:56;100797.84;;;21.28;56.71
69717;BME280;67420;46.144;19.666;2023-11-18T21:17:59;100796.75;;;21.30;56.41
69717;BME280;67420;46.144;19.666;2023-11-18T21:28:01;100816.75;;;21.26;56.18
69717;BME280;67420;46.144;19.666;2023-11-18T21:38:06;100824.91;;;21.25;56.27
69717;BME280;67420;46.144;19.666;2023-11-18T21:48:08;100813.19;;;21.26;56.29
69717;BME280;67420;46.144;19.666;2023-11-18T21:58:10;100813.31;;;21.24;56.40
69717;BME280;67420;46.144;19.666;2023-11-18T22:08:14;100815.88;;;21.26;55.95
69717;BME280;67420;46.144;19.666;2023-11-18T22:18:20;100816.84;;;21.25;56.26
69717;BME280;67420;46.144;19.666;2023-11-18T22:28:24;100849.03;;;21.25;55.94
69717;BME280;67420;46.144;19.666;2023-11-18T22:38:26;100817.19;;;21.20;56.41
69717;BME280;67420;46.144;19.666;2023-11-18T22:48:27;100796.25;;;21.25;55.85
69717;BME280;67420;46.144;19.666;2023-11-18T22:58:29;100821.47;;;21.23;55.90
69717;BME280;67420;46.144;19.666;2023-11-18T23:08:31;100802.47;;;21.26;55.85
69717;BME280;67420;46.144;19.666;2023-11-18T23:18:33;100793.56;;;21.25;55.68
69717;BME280;67420;46.144;19.666;2023-11-18T23:28:35;100778.34;;;21.26;55.73
69717;BME280;67420;46.144;19.666;2023-11-18T23:38:38;100795.63;;;21.22;55.59
69717;BME280;67420;46.144;19.666;2023-11-18T23:48:40;100804.41;;;21.24;55.63
69717;BME280;67420;46.144;19.666;2023-11-18T23:58:44;100791.00;;;21.24;55.67
